Time;durP1;ratioP1;P1;durP2;ratioP2;P2;SDS_P1;SDS_P2;PMS_P1;PMS_P2;Temp;Humidity;BMP_temperature;BMP_pressure;BME280_temperature;BME280_humidity;BME280_pressure;Samples;Min_cycle;Max_cycle;Signal;HPM_P1;HPM_P2
2023/05/07 00:01:50;;;;;;;23.23;16.73;;;;;;;;;;5032350;28;20183;-86
2023/05/07 00:04:16;;;;;;;22.77;16.73;;;;;;;;;;5016742;28;20177;-86
2023/05/07 00:06:42;;;;;;;24.10;17.30;;;;;;;;;;5038475;28;20172;-87
2023/05/07 00:09:11;;;;;;;24.73;17.40;;;;;;;;;;5038898;28;20181;-87
2023/05/07 00:11:37;;;;;;;18.03;14.43;;;;;;;;;;5038658;28;20204;-86
2023/05/07 00:14:03;;;;;;;13.50;11.97;;;;;;;;;;5039023;28;20172;-87
2023/05/07 00:16:29;;;;;;;13.70;11.33;;;;;;;;;;5039172;28;20208;-86
2023/05/07 00:18:57;;;;;;;11.77;10.57;;;;;;;;;;5038584;28;20200;-85
2023/05/07 00:21:26;;;;;;;11.67;10.57;;;;;;;;;;5038731;28;20168;-86
2023/05/07 00:23:52;;;;;;;14.23;11.00;;;;;;;;;;5038607;28;20208;-86
2023/05/07 00:26:21;;;;;;;11.20;10.00;;;;;;;;;;5022387;28;20245;-86
2023/05/07 00:28:47;;;;;;;11.57;9.87;;;;;;;;;;5038769;28;20192;-86
2023/05/07 00:31:13;;;;;;;13.57;10.60;;;;;;;;;;5038775;28;20219;-86
2023/05/07 00:33:41;;;;;;;13.00;10.57;;;;;;;;;;5038659;28;20172;-86
2023/05/07 00:36:07;;;;;;;11.73;10.63;;;;;;;;;;5038253;28;20187;-86
2023/05/07 00:38:33;;;;;;;11.23;10.23;;;;;;;;;;5041066;28;20207;-86
2023/05/07 00:41:00;;;;;;;11.10;10.00;;;;;;;;;;5041572;28;20172;-86
2023/05/07 00:43:28;;;;;;;12.13;10.87;;;;;;;;;;5041475;28;20172;-86
2023/05/07 00:45:54;;;;;;;12.97;10.30;;;;;;;;;;5041812;28;20176;-86
2023/05/07 00:48:20;;;;;;;12.77;11.47;;;;;;;;;;5041413;28;20245;-87
2023/05/07 00:50:49;;;;;;;12.33;11.23;;;;;;;;;;5041409;28;20206;-86
2023/05/07 00:53:15;;;;;;;12.77;11.23;;;;;;;;;;5023373;28;20184;-86
2023/05/07 00:55:41;;;;;;;12.87;11.53;;;;;;;;;;5025455;28;20263;-86
2023/05/07 00:58:07;;;;;;;13.50;11.37;;;;;;;;;;5041897;28;20200;-86
2023/05/07 01:00:36;;;;;;;13.20;11.90;;;;;;;;;;5025194;28;20186;-86
2023/05/07 01:03:02;;;;;;;12.90;11.80;;;;;;;;;;5041886;28;20176;-86
2023/05/07 01:05:28;;;;;;;12.57;11.13;;;;;;;;;;5041541;28;20171;-86
2023/05/07 01:07:57;;;;;;;14.57;11.90;;;;;;;;;;5041443;28;20241;-87
2023/05/07 01:10:24;;;;;;;13.37;12.07;;;;;;;;;;5041394;28;20184;-86
2023/05/07 01:12:50;;;;;;;15.30;12.67;;;;;;;;;;5041286;28;20183;-86
2023/05/07 01:15:19;;;;;;;13.70;12.33;;;;;;;;;;5041149;28;20176;-87
2023/05/07 01:17:45;;;;;;;13.67;12.30;;;;;;;;;;5038305;28;20196;-87
2023/05/07 01:20:12;;;;;;;14.00;12.60;;;;;;;;;;5037788;28;20263;-88
2023/05/07 01:22:41;;;;;;;14.20;12.80;;;;;;;;;;5021885;28;20226;-87
2023/05/07 01:25:07;;;;;;;15.37;13.23;;;;;;;;;;5037893;28;20164;-86
2023/05/07 01:27:35;;;;;;;14.10;12.67;;;;;;;;;;5037679;28;20187;-86
2023/05/07 01:30:03;;;;;;;14.00;12.60;;;;;;;;;;5037710;28;20180;-85
2023/05/07 01:32:32;;;;;;;14.70;13.23;;;;;;;;;;5037726;28;20192;-87
2023/05/07 01:35:00;;;;;;;14.73;13.43;;;;;;;;;;5037788;28;20247;-86
2023/05/07 01:37:27;;;;;;;14.70;13.13;;;;;;;;;;5037996;28;20212;-86
2023/05/07 01:39:53;;;;;;;16.03;14.33;;;;;;;;;;5037429;28;20220;-86
2023/05/07 01:42:19;;;;;;;15.73;14.23;;;;;;;;;;5036445;28;20204;-86
2023/05/07 01:44:48;;;;;;;15.10;13.70;;;;;;;;;;5020042;28;20184;-86
2023/05/07 01:47:14;;;;;;;15.27;13.77;;;;;;;;;;5037482;28;20184;-86
2023/05/07 01:49:41;;;;;;;15.67;14.27;;;;;;;;;;5037544;28;20230;-86
2023/05/07 01:52:11;;;;;;;15.50;14.10;;;;;;;;;;5037583;28;20187;-87
2023/05/07 01:54:37;;;;;;;16.77;14.40;;;;;;;;;;5035069;28;20244;-86
2023/05/07 01:57:03;;;;;;;15.77;14.30;;;;;;;;;;5037142;28;20306;-86
2023/05/07 01:59:32;;;;;;;16.00;14.40;;;;;;;;;;5037238;28;20176;-87
2023/05/07 02:01:58;;;;;;;17.00;15.40;;;;;;;;;;5037147;28;20200;-86
2023/05/07 02:04:24;;;;;;;16.43;14.93;;;;;;;;;;5037275;28;20207;-87
2023/05/07 02:06:50;;;;;;;16.60;14.90;;;;;;;;;;5037437;28;20188;-87
2023/05/07 02:09:19;;;;;;;18.07;16.33;;;;;;;;;;5037053;28;20175;-86
2023/05/07 02:11:45;;;;;;;17.33;15.63;;;;;;;;;;5037303;28;20179;-87
2023/05/07 02:14:11;;;;;;;16.87;15.23;;;;;;;;;;5020462;28;20191;-87
2023/05/07 02:16:40;;;;;;;17.27;15.77;;;;;;;;;;5020809;28;20234;-86
2023/05/07 02:19:06;;;;;;;18.23;16.23;;;;;;;;;;5037401;28;20178;-86
2023/05/07 02:21:32;;;;;;;17.23;15.63;;;;;;;;;;5037135;28;20196;-87
2023/05/07 02:23:58;;;;;;;17.93;16.17;;;;;;;;;;5037195;28;20192;-86
2023/05/07 02:26:26;;;;;;;17.40;15.63;;;;;;;;;;5020719;28;20184;-86
2023/05/07 02:28:53;;;;;;;17.03;15.27;;;;;;;;;;5036550;28;20229;-86
2023/05/07 02:31:19;;;;;;;17.20;15.43;;;;;;;;;;5021075;28;20184;-87
2023/05/07 02:33:48;;;;;;;16.77;15.23;;;;;;;;;;5037165;28;20184;-87
2023/05/07 02:36:14;;;;;;;17.43;15.73;;;;;;;;;;5036985;28;20177;-86
2023/05/07 02:38:40;;;;;;;17.40;15.73;;;;;;;;;;5036802;28;20212;-86
2023/05/07 02:41:08;;;;;;;17.43;15.63;;;;;;;;;;5036711;28;20168;-86
2023/05/07 02:43:37;;;;;;;18.13;15.87;;;;;;;;;;5036653;28;20183;-86
2023/05/07 02:46:03;;;;;;;16.20;14.80;;;;;;;;;;5020958;28;20176;-86
2023/05/07 02:48:32;;;;;;;17.77;16.17;;;;;;;;;;5036635;28;20231;-87
2023/05/07 02:50:58;;;;;;;17.20;15.53;;;;;;;;;;5036819;28;20183;-87
2023/05/07 02:53:30;;;;;;;17.13;15.33;;;;;;;;;;5036605;28;20210;-87
2023/05/07 02:55:56;;;;;;;17.30;15.27;;;;;;;;;;5036418;28;20176;-87
2023/05/07 02:58:22;;;;;;;17.73;15.93;;;;;;;;;;5036294;28;20265;-87
2023/05/07 03:00:48;;;;;;;17.07;15.50;;;;;;;;;;5036711;28;20250;-86
2023/05/07 03:03:17;;;;;;;17.17;15.47;;;;;;;;;;5037231;28;20182;-88
2023/05/07 03:05:43;;;;;;;16.43;14.90;;;;;;;;;;5036719;28;20172;-87
2023/05/07 03:08:09;;;;;;;16.23;14.67;;;;;;;;;;5036628;28;20180;-87
2023/05/07 03:10:38;;;;;;;17.63;15.87;;;;;;;;;;5036400;28;20183;-87
2023/05/07 03:13:05;;;;;;;17.90;16.03;;;;;;;;;;5036856;28;20187;-87
2023/05/07 03:15:31;;;;;;;17.93;16.27;;;;;;;;;;5036838;28;20191;-87
2023/05/07 03:17:57;;;;;;;18.37;16.33;;;;;;;;;;5035953;28;20204;-87
2023/05/07 03:20:25;;;;;;;18.40;16.63;;;;;;;;;;5036449;28;20179;-87
2023/05/07 03:22:51;;;;;;;17.67;16.00;;;;;;;;;;5035973;28;20206;-87
2023/05/07 03:25:17;;;;;;;17.77;16.13;;;;;;;;;;5036149;28;20270;-87
2023/05/07 03:27:46;;;;;;;17.47;15.77;;;;;;;;;;5020309;28;20184;-87
2023/05/07 03:30:12;;;;;;;16.97;15.33;;;;;;;;;;5035991;28;20233;-87
2023/05/07 03:32:41;;;;;;;17.03;15.33;;;;;;;;;;5016318;28;20215;-86
2023/05/07 03:35:08;;;;;;;16.97;15.20;;;;;;;;;;5004484;28;20192;-86
2023/05/07 03:37:34;;;;;;;17.40;15.70;;;;;;;;;;5036346;28;20227;-86
2023/05/07 03:40:00;;;;;;;19.03;16.37;;;;;;;;;;5035781;28;20220;-87
2023/05/07 03:42:26;;;;;;;19.37;17.47;;;;;;;;;;5036677;28;20186;-87
2023/05/07 03:44:54;;;;;;;18.33;16.60;;;;;;;;;;5036119;28;20183;-86
2023/05/07 03:47:21;;;;;;;19.53;17.63;;;;;;;;;;5036301;28;20188;-86
2023/05/07 03:49:48;;;;;;;20.73;18.70;;;;;;;;;;5035420;28;20194;-87
2023/05/07 03:52:14;;;;;;;20.97;19.00;;;;;;;;;;5035412;28;20188;-87
2023/05/07 03:54:40;;;;;;;21.10;19.07;;;;;;;;;;5035713;28;20198;-87
2023/05/07 03:57:07;;;;;;;22.33;20.03;;;;;;;;;;5035878;28;20222;-87
2023/05/07 03:59:33;;;;;;;23.47;21.17;;;;;;;;;;5015503;28;20179;-86
2023/05/07 04:02:01;;;;;;;23.80;21.60;;;;;;;;;;5035923;28;20179;-87
2023/05/07 04:04:27;;;;;;;23.57;21.43;;;;;;;;;;5035346;28;20252;-86
2023/05/07 04:06:53;;;;;;;24.00;21.90;;;;;;;;;;5035623;28;20183;-87
2023/05/07 04:09:19;;;;;;;23.77;21.57;;;;;;;;;;5035289;28;20230;-87
2023/05/07 04:11:48;;;;;;;24.57;22.10;;;;;;;;;;5036049;28;20186;-86
2023/05/07 04:14:14;;;;;;;24.83;22.43;;;;;;;;;;5035931;28;20198;-87
2023/05/07 04:16:40;;;;;;;25.27;22.97;;;;;;;;;;5035460;28;20199;-86
2023/05/07 04:19:08;;;;;;;25.40;23.10;;;;;;;;;;5036158;28;20180;-86
2023/05/07 04:21:34;;;;;;;24.87;22.53;;;;;;;;;;5035731;28;20179;-87
2023/05/07 04:24:00;;;;;;;25.73;23.23;;;;;;;;;;5035698;28;20250;-86
2023/05/07 04:26:27;;;;;;;24.60;22.30;;;;;;;;;;5035427;28;20180;-86
2023/05/07 04:28:57;;;;;;;25.47;23.00;;;;;;;;;;5018360;28;20184;-86
2023/05/07 04:31:23;;;;;;;25.17;22.83;;;;;;;;;;5035201;28;20210;-86
2023/05/07 04:33:50;;;;;;;25.83;23.43;;;;;;;;;;5016116;28;20185;-87
2023/05/07 04:36:17;;;;;;;26.00;23.50;;;;;;;;;;5015667;28;20199;-87
2023/05/07 04:38:43;;;;;;;25.77;23.33;;;;;;;;;;5016728;28;20208;-87
2023/05/07 04:41:09;;;;;;;26.40;24.10;;;;;;;;;;5035751;28;20175;-86
2023/05/07 04:43:38;;;;;;;26.47;24.07;;;;;;;;;;5036574;28;20191;-87
2023/05/07 04:46:04;;;;;;;27.57;25.13;;;;;;;;;;5020071;28;20183;-87
2023/05/07 04:48:30;;;;;;;27.13;24.63;;;;;;;;;;5019314;28;20176;-86
2023/05/07 04:50:56;;;;;;;27.70;25.13;;;;;;;;;;5036100;28;20175;-86
2023/05/07 04:53:25;;;;;;;27.13;24.60;;;;;;;;;;5039235;28;20176;-87
2023/05/07 04:56:00;;;;;;;27.07;24.67;;;;;;;;;;5039391;28;20184;-86
2023/05/07 04:58:27;;;;;;;27.03;24.50;;;;;;;;;;5039226;28;20211;-86
2023/05/07 05:00:53;;;;;;;27.50;25.03;;;;;;;;;;5039094;28;20179;-86
2023/05/07 05:03:21;;;;;;;28.17;25.47;;;;;;;;;;5038942;28;20175;-86
2023/05/07 05:05:49;;;;;;;27.30;24.73;;;;;;;;;;5022891;28;20206;-87
2023/05/07 05:08:15;;;;;;;27.17;24.60;;;;;;;;;;5038829;28;20212;-86
2023/05/07 05:10:44;;;;;;;27.07;24.57;;;;;;;;;;5038029;28;20187;-86
2023/05/07 05:13:12;;;;;;;28.20;25.70;;;;;;;;;;5038484;28;20192;-87
2023/05/07 05:15:38;;;;;;;27.27;24.77;;;;;;;;;;5038994;28;20184;-86
2023/05/07 05:18:07;;;;;;;26.50;24.10;;;;;;;;;;5038809;28;20204;-86
2023/05/07 05:20:33;;;;;;;27.77;24.93;;;;;;;;;;5038282;28;20180;-87
2023/05/07 05:22:59;;;;;;;27.93;25.43;;;;;;;;;;5038538;28;20200;-86
2023/05/07 05:25:28;;;;;;;28.50;26.00;;;;;;;;;;5039412;28;20176;-87
2023/05/07 05:27:54;;;;;;;27.33;24.90;;;;;;;;;;5038809;28;20176;-87
2023/05/07 05:30:20;;;;;;;27.80;25.30;;;;;;;;;;5038342;28;20187;-86
2023/05/07 05:32:46;;;;;;;27.57;25.07;;;;;;;;;;5022511;28;20195;-86
2023/05/07 05:35:15;;;;;;;26.73;24.33;;;;;;;;;;5038340;28;20180;-87
2023/05/07 05:37:42;;;;;;;27.33;24.83;;;;;;;;;;5038732;28;20288;-86
2023/05/07 05:40:08;;;;;;;26.87;24.57;;;;;;;;;;5038616;28;20285;-86
2023/05/07 05:42:36;;;;;;;26.93;24.53;;;;;;;;;;5038256;28;20225;-86
2023/05/07 05:45:03;;;;;;;26.00;23.90;;;;;;;;;;5038836;28;20203;-87
2023/05/07 05:47:29;;;;;;;25.17;22.67;;;;;;;;;;5038707;28;20211;-86
2023/05/07 05:50:02;;;;;;;26.33;24.07;;;;;;;;;;5041078;28;20183;-86
2023/05/07 05:52:28;;;;;;;25.43;23.20;;;;;;;;;;5038376;28;20211;-87
2023/05/07 05:54:57;;;;;;;25.83;23.63;;;;;;;;;;5037283;28;20188;-87
2023/05/07 05:57:23;;;;;;;26.30;23.83;;;;;;;;;;5045643;28;20234;-86
2023/05/07 05:59:49;;;;;;;26.37;23.97;;;;;;;;;;5057905;28;20198;-87
2023/05/07 06:02:15;;;;;;;26.57;24.27;;;;;;;;;;5056758;28;20258;-86
2023/05/07 06:05:07;;;;;;;25.33;23.03;;;;;;;;;;5056414;28;20170;-88
2023/05/07 06:07:30;;;;;;;25.47;23.30;;;;;;;;;;5074452;28;20183;-86
2023/05/07 06:09:56;;;;;;;26.00;23.27;;;;;;;;;;5057844;28;20180;-87
2023/05/07 06:12:23;;;;;;;26.10;23.60;;;;;;;;;;5061356;28;20175;-86
2023/05/07 06:14:52;;;;;;;26.17;23.87;;;;;;;;;;5040769;28;20180;-86
2023/05/07 06:17:20;;;;;;;25.60;23.30;;;;;;;;;;5057074;28;20258;-86
2023/05/07 06:19:47;;;;;;;26.00;23.80;;;;;;;;;;5056962;28;20186;-87
2023/05/07 06:22:15;;;;;;;27.03;24.53;;;;;;;;;;5057193;28;20179;-86
2023/05/07 06:24:41;;;;;;;27.30;24.70;;;;;;;;;;5057068;28;20168;-86
2023/05/07 06:27:07;;;;;;;27.03;24.63;;;;;;;;;;5057115;28;20178;-86
2023/05/07 06:29:34;;;;;;;28.63;25.93;;;;;;;;;;5056880;28;20171;-86
2023/05/07 06:32:13;;;;;;;28.50;25.90;;;;;;;;;;5056940;28;20179;-87
2023/05/07 06:34:39;;;;;;;28.60;25.93;;;;;;;;;;5053952;28;20178;-86
2023/05/07 06:37:11;;;;;;;29.60;27.00;;;;;;;;;;5056745;28;20211;-86
2023/05/07 06:39:37;;;;;;;29.40;26.63;;;;;;;;;;5053228;28;20251;-88
2023/05/07 06:42:04;;;;;;;29.07;26.47;;;;;;;;;;5053817;28;20179;-86
2023/05/07 06:44:33;;;;;;;30.10;27.30;;;;;;;;;;5048251;28;20177;-87
2023/05/07 06:47:02;;;;;;;30.20;27.40;;;;;;;;;;5052943;28;20267;-87
2023/05/07 06:49:31;;;;;;;29.90;27.30;;;;;;;;;;5053163;28;20210;-86
2023/05/07 06:51:59;;;;;;;29.23;26.70;;;;;;;;;;5050674;28;20235;-86
2023/05/07 06:54:33;;;;;;;28.80;26.10;;;;;;;;;;5036462;28;20192;-87
2023/05/07 06:57:09;;;;;;;28.57;26.07;;;;;;;;;;5053004;28;20294;-87
2023/05/07 06:59:43;;;;;;;29.40;26.73;;;;;;;;;;5049280;28;20171;-87
2023/05/07 07:02:09;;;;;;;28.90;26.23;;;;;;;;;;5053382;28;20173;-88
2023/05/07 07:04:36;;;;;;;30.23;27.43;;;;;;;;;;5047010;28;20173;-86
2023/05/07 07:07:04;;;;;;;28.40;25.90;;;;;;;;;;5051869;28;20222;-86
2023/05/07 07:09:30;;;;;;;29.23;26.53;;;;;;;;;;5052972;28;20176;-87
2023/05/07 07:11:56;;;;;;;29.13;26.57;;;;;;;;;;5052544;28;20195;-87
2023/05/07 07:14:25;;;;;;;28.93;26.20;;;;;;;;;;5052462;28;20184;-86
2023/05/07 07:16:51;;;;;;;28.23;25.63;;;;;;;;;;5034141;28;20248;-87
2023/05/07 07:19:18;;;;;;;27.47;24.97;;;;;;;;;;5052746;28;20175;-86
2023/05/07 07:21:44;;;;;;;28.00;25.50;;;;;;;;;;5026776;28;20200;-87
2023/05/07 07:24:21;;;;;;;27.37;24.67;;;;;;;;;;5040191;28;20196;-87
2023/05/07 07:26:47;;;;;;;27.20;24.60;;;;;;;;;;5034741;28;20203;-87
2023/05/07 07:29:13;;;;;;;27.87;25.27;;;;;;;;;;5053019;28;20881;-90
2023/05/07 07:31:39;;;;;;;27.23;24.90;;;;;;;;;;5047842;28;20176;-89
2023/05/07 07:34:08;;;;;;;28.73;25.83;;;;;;;;;;5037979;28;20181;-92
2023/05/07 07:36:34;;;;;;;26.87;24.57;;;;;;;;;;5010961;28;20202;-90
2023/05/07 07:39:00;;;;;;;27.43;24.73;;;;;;;;;;5032049;28;20177;-89
2023/05/07 07:41:26;;;;;;;27.67;25.07;;;;;;;;;;5016637;28;20226;-90
2023/05/07 07:43:55;;;;;;;26.60;24.10;;;;;;;;;;5016670;28;20188;-90
2023/05/07 07:46:21;;;;;;;27.90;25.20;;;;;;;;;;5032222;28;20175;-90
2023/05/07 07:48:49;;;;;;;27.80;25.30;;;;;;;;;;5036337;28;20264;-89
2023/05/07 07:51:18;;;;;;;26.93;24.27;;;;;;;;;;5020409;28;20241;-91
2023/05/07 07:53:44;;;;;;;28.10;25.33;;;;;;;;;;5036163;28;20234;-91
2023/05/07 07:56:10;;;;;;;26.63;24.13;;;;;;;;;;5036511;28;20176;-90
2023/05/07 07:58:39;;;;;;;26.87;24.37;;;;;;;;;;5036154;28;20244;-90
2023/05/07 08:01:05;;;;;;;26.90;23.97;;;;;;;;;;5020408;28;20278;-91
2023/05/07 08:03:32;;;;;;;27.27;24.67;;;;;;;;;;5036382;28;20176;-91
2023/05/07 08:06:00;;;;;;;26.77;24.07;;;;;;;;;;5036851;28;20195;-90
2023/05/07 08:08:26;;;;;;;26.87;24.23;;;;;;;;;;5036658;28;20247;-91
2023/05/07 08:10:52;;;;;;;27.70;24.97;;;;;;;;;;5036633;28;20186;-89
2023/05/07 08:13:18;;;;;;;26.53;24.03;;;;;;;;;;5020176;28;20195;-91
2023/05/07 08:15:47;;;;;;;27.93;25.33;;;;;;;;;;5036488;28;20238;-92
2023/05/07 08:18:13;;;;;;;26.93;24.33;;;;;;;;;;5036500;28;20208;-92
2023/05/07 08:20:39;;;;;;;28.63;25.60;;;;;;;;;;5036598;28;20180;-93
2023/05/07 08:23:08;;;;;;;27.90;25.30;;;;;;;;;;5036403;28;20196;-92
2023/05/07 08:25:35;;;;;;;27.33;24.63;;;;;;;;;;5036351;28;20168;-90
2023/05/07 08:28:03;;;;;;;28.13;25.50;;;;;;;;;;5040807;28;20176;-92
2023/05/07 08:30:32;;;;;;;26.93;24.33;;;;;;;;;;5040095;28;20176;-88
2023/05/07 08:32:58;;;;;;;27.83;24.83;;;;;;;;;;5039446;28;20179;-90
2023/05/07 08:35:25;;;;;;;25.33;22.77;;;;;;;;;;5040001;28;20180;-90
2023/05/07 08:37:54;;;;;;;26.10;23.60;;;;;;;;;;5039633;28;20203;-91
2023/05/07 08:40:21;;;;;;;27.23;24.47;;;;;;;;;;5022228;28;20223;-91
2023/05/07 08:42:51;;;;;;;25.77;22.80;;;;;;;;;;5039149;28;20483;-88
2023/05/07 08:45:18;;;;;;;23.03;20.83;;;;;;;;;;5039166;28;20234;-88
2023/05/07 08:47:47;;;;;;;24.40;22.00;;;;;;;;;;5039871;28;20249;-87
2023/05/07 08:50:13;;;;;;;24.77;22.23;;;;;;;;;;5039347;28;20266;-88
2023/05/07 08:52:42;;;;;;;24.50;22.20;;;;;;;;;;5038022;28;20188;-89
2023/05/07 08:55:09;;;;;;;24.27;22.07;;;;;;;;;;5037857;28;20176;-87
2023/05/07 08:57:38;;;;;;;24.07;21.87;;;;;;;;;;5039183;28;20211;-89
2023/05/07 09:00:06;;;;;;;25.63;23.00;;;;;;;;;;5040182;28;20206;-88
2023/05/07 09:02:36;;;;;;;25.60;22.93;;;;;;;;;;5039440;28;20206;-88
2023/05/07 09:05:02;;;;;;;25.23;22.10;;;;;;;;;;5039970;28;20168;-88
2023/05/07 09:07:28;;;;;;;25.10;22.87;;;;;;;;;;5023365;28;20195;-88
2023/05/07 09:09:55;;;;;;;23.17;20.93;;;;;;;;;;5022614;28;20184;-87
2023/05/07 09:12:21;;;;;;;24.53;22.23;;;;;;;;;;5039185;28;20325;-87
2023/05/07 09:14:47;;;;;;;24.63;22.23;;;;;;;;;;5038900;28;20176;-85
2023/05/07 09:17:14;;;;;;;24.60;22.23;;;;;;;;;;5038511;28;20207;-87
2023/05/07 09:19:43;;;;;;;24.20;21.93;;;;;;;;;;5035277;28;20277;-87
2023/05/07 09:22:09;;;;;;;24.67;22.17;;;;;;;;;;5019807;28;20176;-86
2023/05/07 09:24:44;;;;;;;24.53;22.37;;;;;;;;;;5020627;28;20307;-89
2023/05/07 09:27:13;;;;;;;22.60;20.53;;;;;;;;;;5038651;28;20190;-87
2023/05/07 09:29:41;;;;;;;22.20;19.90;;;;;;;;;;5038852;28;20179;-87
2023/05/07 09:32:08;;;;;;;23.57;21.27;;;;;;;;;;5039371;28;20176;-87
2023/05/07 09:34:36;;;;;;;22.60;20.30;;;;;;;;;;5018886;28;20185;-88
2023/05/07 09:37:02;;;;;;;21.57;19.47;;;;;;;;;;5018354;28;20213;-88
2023/05/07 09:39:44;;;;;;;22.30;20.03;;;;;;;;;;5018318;28;20220;-86
2023/05/07 09:42:14;;;;;;;22.37;20.37;;;;;;;;;;5029490;28;20190;-86
2023/05/07 09:44:41;;;;;;;22.53;20.40;;;;;;;;;;5038901;28;20222;-87
2023/05/07 09:47:07;;;;;;;22.40;20.30;;;;;;;;;;5038696;28;20180;-87
2023/05/07 09:49:37;;;;;;;21.27;19.40;;;;;;;;;;5038624;28;20180;-86
2023/05/07 09:52:05;;;;;;;23.20;21.17;;;;;;;;;;5037333;28;20508;-85
2023/05/07 09:54:34;;;;;;;22.67;20.77;;;;;;;;;;5037076;28;20428;-86
2023/05/07 09:57:02;;;;;;;21.77;19.90;;;;;;;;;;5038024;28;20478;-84
2023/05/07 09:59:32;;;;;;;21.35;19.45;;;;;;;;;;5037733;28;20411;-84
2023/05/07 10:01:59;;;;;;;21.52;19.55;;;;;;;;;;5037918;28;20408;-84
2023/05/07 10:04:28;;;;;;;20.37;18.53;;;;;;;;;;5038000;28;20557;-83
2023/05/07 10:06:55;;;;;;;19.80;17.97;;;;;;;;;;5037503;28;20180;-83
2023/05/07 10:09:22;;;;;;;21.38;19.52;;;;;;;;;;5021129;28;20415;-85
2023/05/07 10:11:50;;;;;;;22.30;20.30;;;;;;;;;;5034355;28;20413;-86
2023/05/07 10:14:19;;;;;;;20.67;18.88;;;;;;;;;;5018354;28;20410;-85
2023/05/07 10:16:47;;;;;;;20.52;18.52;;;;;;;;;;5017374;28;20426;-85
2023/05/07 10:19:15;;;;;;;18.83;16.90;;;;;;;;;;5018404;28;20169;-86
2023/05/07 10:21:45;;;;;;;17.83;16.17;;;;;;;;;;5018237;28;20211;-85
2023/05/07 10:24:16;;;;;;;19.63;17.83;;;;;;;;;;5017056;28;20413;-85
2023/05/07 10:26:44;;;;;;;19.55;17.85;;;;;;;;;;5031539;28;20442;-84
2023/05/07 10:29:18;;;;;;;18.75;17.17;;;;;;;;;;5037470;28;20420;-85
2023/05/07 10:32:03;;;;;;;16.03;14.57;;;;;;;;;;5034331;28;20279;-86
2023/05/07 10:34:49;;;;;;;17.45;15.85;;;;;;;;;;5023655;28;20404;-85
2023/05/07 10:37:15;;;;;;;16.67;15.18;;;;;;;;;;5036948;28;20424;-85
2023/05/07 10:39:42;;;;;;;16.77;15.25;;;;;;;;;;5013271;28;20440;-85
2023/05/07 10:42:11;;;;;;;16.05;14.75;;;;;;;;;;5026532;28;20444;-84
2023/05/07 10:44:37;;;;;;;15.57;14.27;;;;;;;;;;5033111;28;20467;-87
2023/05/07 10:47:05;;;;;;;14.85;13.50;;;;;;;;;;5033424;28;20405;-87
2023/05/07 10:49:34;;;;;;;15.35;14.05;;;;;;;;;;5033507;28;20409;-86
2023/05/07 10:52:14;;;;;;;14.30;13.10;;;;;;;;;;5034025;28;20183;-86
2023/05/07 10:54:40;;;;;;;16.27;14.88;;;;;;;;;;5033757;28;20443;-86
2023/05/07 10:57:25;;;;;;;16.23;14.93;;;;;;;;;;5016596;28;20433;-86
2023/05/07 10:59:53;;;;;;;15.45;14.15;;;;;;;;;;5029106;28;20413;-86
2023/05/07 11:02:20;;;;;;;15.20;14.00;;;;;;;;;;5033809;28;20409;-86
2023/05/07 11:04:46;;;;;;;15.70;14.40;;;;;;;;;;5017007;28;20406;-87
2023/05/07 11:07:21;;;;;;;16.00;14.60;;;;;;;;;;5033537;28;20496;-86
2023/05/07 11:09:53;;;;;;;15.38;14.13;;;;;;;;;;5033227;28;20405;-85
2023/05/07 11:12:46;;;;;;;15.27;13.85;;;;;;;;;;5032751;28;20413;-85
2023/05/07 11:15:16;;;;;;;15.18;13.88;;;;;;;;;;5033280;28;20437;-87
2023/05/07 11:17:55;;;;;;;14.27;13.18;;;;;;;;;;5033261;28;20433;-87
2023/05/07 11:20:21;;;;;;;15.30;14.00;;;;;;;;;;5016273;28;20409;-85
2023/05/07 11:22:49;;;;;;;14.60;13.50;;;;;;;;;;5032387;28;20402;-86
2023/05/07 11:25:19;;;;;;;15.98;14.68;;;;;;;;;;5032515;28;20412;-86
2023/05/07 11:27:47;;;;;;;16.42;14.93;;;;;;;;;;5032357;28;20410;-86
2023/05/07 11:30:22;;;;;;;15.50;14.20;;;;;;;;;;5032415;28;20467;-87
2023/05/07 11:32:48;;;;;;;16.03;14.73;;;;;;;;;;5031033;28;20433;-87
2023/05/07 11:35:16;;;;;;;15.70;14.30;;;;;;;;;;5016191;28;20429;-87
2023/05/07 11:37:45;;;;;;;14.73;13.43;;;;;;;;;;5031772;28;20425;-87
2023/05/07 11:40:13;;;;;;;14.80;13.60;;;;;;;;;;5032119;28;20506;-86
2023/05/07 11:42:42;;;;;;;14.35;13.05;;;;;;;;;;5032258;28;20413;-86
2023/05/07 11:45:09;;;;;;;15.30;14.10;;;;;;;;;;5032314;28;20411;-85
2023/05/07 11:47:35;;;;;;;15.07;13.70;;;;;;;;;;5015580;28;20439;-86
2023/05/07 11:50:05;;;;;;;15.10;13.60;;;;;;;;;;5027534;28;20452;-86
2023/05/07 11:52:32;;;;;;;14.52;13.32;;;;;;;;;;5029611;28;20445;-86
2023/05/07 11:54:59;;;;;;;15.40;14.00;;;;;;;;;;5031955;28;20436;-88
2023/05/07 11:57:28;;;;;;;14.43;13.02;;;;;;;;;;5032370;28;20205;-86
2023/05/07 11:59:58;;;;;;;15.90;14.45;;;;;;;;;;5028840;28;20445;-88
2023/05/07 12:02:27;;;;;;;15.87;14.57;;;;;;;;;;5026870;28;20417;-88
2023/05/07 12:04:54;;;;;;;15.43;14.10;;;;;;;;;;5031940;28;20443;-89
2023/05/07 12:07:21;;;;;;;14.93;13.63;;;;;;;;;;5030481;28;20409;-87
2023/05/07 12:09:47;;;;;;;14.43;13.20;;;;;;;;;;5030246;28;20410;-87
2023/05/07 12:12:17;;;;;;;14.27;13.05;;;;;;;;;;5030204;28;20413;-87
2023/05/07 12:14:47;;;;;;;13.60;12.45;;;;;;;;;;5031216;28;20424;-86
2023/05/07 12:17:13;;;;;;;15.60;12.52;;;;;;;;;;5030545;28;20437;-85
2023/05/07 12:19:40;;;;;;;13.97;12.63;;;;;;;;;;5031362;28;20468;-86
2023/05/07 12:22:10;;;;;;;14.30;12.40;;;;;;;;;;5031518;28;20571;-84
2023/05/07 12:24:44;;;;;;;13.10;11.95;;;;;;;;;;5033665;28;20422;-85
2023/05/07 12:27:11;;;;;;;13.02;11.88;;;;;;;;;;5028917;28;20418;-85
2023/05/07 12:29:39;;;;;;;13.43;12.27;;;;;;;;;;5031002;28;20422;-87
2023/05/07 12:32:13;;;;;;;12.60;11.50;;;;;;;;;;5029588;28;20441;-86
2023/05/07 12:34:42;;;;;;;12.77;11.57;;;;;;;;;;5030807;28;20409;-86
2023/05/07 12:37:08;;;;;;;12.68;11.55;;;;;;;;;;5030253;28;20421;-85
2023/05/07 12:39:34;;;;;;;12.73;11.53;;;;;;;;;;5031767;28;20441;-86
2023/05/07 12:42:00;;;;;;;12.57;11.48;;;;;;;;;;5032261;28;20413;-86
2023/05/07 12:44:30;;;;;;;12.90;11.70;;;;;;;;;;5031604;28;20402;-88
2023/05/07 12:47:00;;;;;;;12.30;11.30;;;;;;;;;;5031670;28;20497;-90
2023/05/07 12:49:28;;;;;;;13.98;12.75;;;;;;;;;;5029478;28;20417;-88
2023/05/07 12:51:55;;;;;;;13.07;11.85;;;;;;;;;;5029302;28;20414;-88
2023/05/07 12:54:37;;;;;;;13.23;12.13;;;;;;;;;;5031168;28;20757;-87
2023/05/07 12:57:03;;;;;;;13.85;12.65;;;;;;;;;;5031568;28;20528;-87
2023/05/07 12:59:36;;;;;;;13.20;12.00;;;;;;;;;;5030655;28;20406;-86
2023/05/07 13:02:02;;;;;;;13.40;12.30;;;;;;;;;;5031503;28;20409;-86
2023/05/07 13:04:28;;;;;;;13.40;12.20;;;;;;;;;;5032210;28;20489;-86
2023/05/07 13:06:54;;;;;;;12.98;11.85;;;;;;;;;;5004553;28;20423;-86
2023/05/07 13:09:20;;;;;;;13.13;11.95;;;;;;;;;;5032441;28;20448;-85
2023/05/07 13:11:46;;;;;;;13.40;12.20;;;;;;;;;;5012551;28;20417;-85
2023/05/07 13:14:13;;;;;;;13.20;12.07;;;;;;;;;;5018779;28;20417;-85
2023/05/07 13:16:39;;;;;;;13.30;12.20;;;;;;;;;;5035147;28;20410;-86
2023/05/07 13:19:05;;;;;;;13.50;12.30;;;;;;;;;;5032240;28;20500;-86
2023/05/07 13:21:34;;;;;;;13.30;11.80;;;;;;;;;;5034973;28;20417;-86
2023/05/07 13:24:00;;;;;;;13.55;12.25;;;;;;;;;;5034589;28;20539;-87
2023/05/07 13:26:26;;;;;;;13.30;12.10;;;;;;;;;;5017978;28;20415;-87
2023/05/07 13:28:55;;;;;;;13.03;11.80;;;;;;;;;;5049261;28;20409;-86
2023/05/07 13:31:21;;;;;;;13.90;11.90;;;;;;;;;;5016091;28;20411;-86
2023/05/07 13:33:48;;;;;;;15.30;13.68;;;;;;;;;;5031145;28;20451;-87
2023/05/07 13:36:17;;;;;;;14.85;13.45;;;;;;;;;;5032257;28;20414;-85
2023/05/07 13:38:43;;;;;;;15.03;13.60;;;;;;;;;;5015218;28;20439;-86
2023/05/07 13:41:09;;;;;;;14.82;13.50;;;;;;;;;;5018151;28;20421;-86
2023/05/07 13:43:38;;;;;;;14.93;13.50;;;;;;;;;;5034797;28;20436;-86
2023/05/07 13:46:04;;;;;;;15.75;14.18;;;;;;;;;;5034396;28;20409;-87
2023/05/07 13:48:30;;;;;;;15.68;14.27;;;;;;;;;;5017871;28;20417;-85
2023/05/07 13:50:58;;;;;;;16.60;14.98;;;;;;;;;;5018373;28;20535;-86
2023/05/07 13:53:24;;;;;;;15.50;14.07;;;;;;;;;;5034222;28;20425;-85
2023/05/07 13:55:50;;;;;;;14.95;13.63;;;;;;;;;;5034752;28;20426;-86
2023/05/07 13:58:16;;;;;;;15.05;13.55;;;;;;;;;;5026802;28;20435;-86
2023/05/07 14:00:45;;;;;;;15.10;13.60;;;;;;;;;;5030905;28;20407;-86
2023/05/07 14:03:11;;;;;;;15.20;13.73;;;;;;;;;;5031048;28;20422;-86
2023/05/07 14:05:37;;;;;;;14.10;12.80;;;;;;;;;;5031831;28;20414;-85
2023/05/07 14:08:07;;;;;;;14.23;12.93;;;;;;;;;;5031372;28;20477;-87
2023/05/07 14:10:34;;;;;;;13.88;12.45;;;;;;;;;;5030319;28;20445;-86
2023/05/07 14:13:00;;;;;;;13.60;12.30;;;;;;;;;;5034005;28;20410;-87
2023/05/07 14:15:29;;;;;;;13.93;12.63;;;;;;;;;;5013963;28;20411;-87
2023/05/07 14:17:55;;;;;;;13.97;12.67;;;;;;;;;;5014286;28;20489;-88
2023/05/07 14:20:21;;;;;;;13.23;11.93;;;;;;;;;;5014827;28;20427;-89